Mert Kokcu

Olheiro-Chefe - Giresunspor
22 Abr 2027
Quinta-feira
Processo

Personalidade

Adaptabilidade (6) Ambição (9) Controvérsia (15) Lealdade (2) Pressão (2) Profissionalismo (18) Espírito Esportivo (11) Temperamento (3)

Perfil

Estilo de Treinamento Democrático
Licença Continental B
Determinação 3
Gestão de Pessoas 9
Motivação 7
Disciplina 3
Satisfação no Trabalho
99%
Fadiga
0%
Função Olheiro-Chefe
Salário 58.5K p/s
Contrato 14.03.2028

Desempenho

Comportamento Bom
Eficácia do Treinamento
43%
Desenvolvimento do Jogador
30%
Prevenção de Lesões
45%
Implementação Tática
40%

Eventos Recentes

Avaliou um jogador agora
Participou de uma reunião de recrutamento agora
Recomendou um alvo de transferência agora
Recomendou um alvo de transferência agora
Recomendou um alvo de transferência agora
Participou de uma reunião de recrutamento agora
Avaliou um jogador 7d atrás
Avaliou um jogador 7d atrás

Monitorando agora

170
Jogador Clube Status Habilidade Confiança Observado Última observação Último voto
Camilo Durán Bloemfontein Celtic Ativo 125 / 124 40% 8 21.04.2027 -
Saša Lukić Ipswich Town Ativo 136 / 133 40% 2 21.04.2027 -
Scott Twine Bristol City Ativo 138 / 116 40% 2 21.04.2027 -
Gabriel Jesus Barcelona Ativo 162 / 159 40% 1 20.04.2027 -
Sheyi Ojo Crewe Alexandra Ativo 106 / 128 40% 1 20.04.2027 -
Matthew Targett Hull City Ativo 120 / 111 40% 1 20.04.2027 -
Joe Gelhardt Hull City Ativo 130 / 130 40% 8 19.04.2027 -
Callum O'Hare Sheffield United Ativo 127 / 149 40% 5 19.04.2027 -
Rodrigo Zalazar Sporting CP Ativo 146 / 162 40% 5 19.04.2027 -
Justo Giani Umraniyespor Ativo 127 / 124 40% 6 18.04.2027 -
Jackson Muleka Konyaspor Ativo 133 / 134 40% 13 18.04.2027 -
Ronan Hale Gillingham Ativo 114 / 101 40% 4 18.04.2027 -
Marezi Portsmouth Ativo 110 / 112 40% 2 18.04.2027 -
Sam Bell Bristol City Ativo 117 / 122 40% 3 18.04.2027 -
Tony Springett Cheltenham Town Ativo 115 / 106 40% 1 18.04.2027 -
Jason Knight Bristol City Ativo 137 / 151 40% 1 16.04.2027 -
Bongani Zungu Ajax Cape Town Ativo 138 / 116 40% 3 15.04.2027 -
Derensili Sanches Fernandes Huddersfield Town Ativo 133 / 101 40% 2 15.04.2027 -
Abel Bretones Osasuna Ativo 134 / 153 40% 1 15.04.2027 -
Aaron Connolly Leyton Orient Ativo 135 / 122 40% 10 14.04.2027 -
Diogo Gonçalves Konyaspor Ativo 142 / 122 40% 5 14.04.2027 -
Tom Fellows Southampton Ativo 123 / 144 40% 3 13.04.2027 -
Ilyas Ansah Hull City Ativo 144 / 153 40% 3 13.04.2027 -
Jean-Luc Dompé Konyaspor Ativo 119 / 131 40% 4 13.04.2027 Observar
Jack Clarke Ipswich Town Ativo 139 / 139 40% 5 12.04.2027 -
Tatsuhiro Sakamoto Coventry City Ativo 139 / 127 40% 1 12.04.2027 -
Loum Tchaouna Coventry City Ativo 139 / 132 40% 6 11.04.2027 -
Bradley Zwane SuperSport United Ativo 132 / 128 40% 7 09.04.2027 -
Yousef Salech Cardiff City Ativo 125 / 131 40% 5 09.04.2027 -
Zian Flemming Ipswich Town Ativo 125 / 122 40% 3 09.04.2027 -
Max Johnston Derby County Ativo 121 / 130 40% 1 09.04.2027 -
Morgan Whittaker Middlesbrough Ativo 129 / 115 40% 2 07.04.2027 -
Ianis Hagi Alanyaspor Ativo 127 / 120 40% 5 07.04.2027 -
Fashion Sakala Al-Fayha Ativo 115 / 136 40% 5 05.04.2027 -
Callum Brittain Middlesbrough Ativo 130 / 130 40% 1 05.04.2027 -
Aidomo Emakhu Oxford United Ativo 118 / 128 40% 1 05.04.2027 -
Daniel Kyerewaa Reading Ativo 122 / 105 40% 5 03.04.2027 -
André Vidigal Hearts of Oak Ativo 110 / 106 40% 2 31.03.2027 -
Malik Mothersille Stockport County Ativo 106 / 118 40% 3 31.03.2027 -
Sergio Arribas Almería Ativo 133 / 129 40% 3 28.03.2027 -
Majid Jahanbakhsh Rah Ahan Ativo 125 / 143 40% 4 27.03.2027 -
Tunahan Taşçı Istanbulspor Ativo 115 / 106 40% 1 24.03.2027 -
Oswin Appollis Orlando Pirates Ativo 116 / 124 40% 4 23.03.2027 -
Tyrese Campbell Sheffield United Ativo 140 / 105 40% 3 23.03.2027 -
Nuno Santos Mamelodi Sundowns Ativo 121 / 111 40% 2 22.03.2027 -
Finn Azaz Southampton Ativo 119 / 129 40% 2 22.03.2027 -
Dom Ballard Leyton Orient Ativo 133 / 123 40% 5 21.03.2027 -
Tom Cannon Sheffield United Ativo 139 / 152 40% 3 21.03.2027 -
Percy Vilakazi Free State Stars Ativo 102 / 126 40% 4 21.03.2027 -
Steven Bergwijn Al-Ittihad Ativo 150 / 146 40% 2 19.03.2027 -
Kwame Opoku Asante Kotoko Ativo 96 / 109 40% 2 19.03.2027 -
Mees Rijks Bristol Rovers Ativo 118 / 97 40% 1 19.03.2027 -
Samuel Kalu Botev Plovdiv Ativo 130 / 118 40% 2 17.03.2027 -
Richard Koné Queens Park Rangers Ativo 123 / 111 40% 1 17.03.2027 -
Erick Dolly Black Aces Ativo 100 / 103 40% 1 17.03.2027 -
Tyreece Campbell Charlton Athletic Ativo 118 / 108 40% 1 15.03.2027 -
Tomáš Rigo Stoke City Ativo 139 / 144 40% 1 15.03.2027 -
Iwan Morgan Grimsby Town Ativo 116 / 99 40% 1 14.03.2027 -
Martin Sekulić Ural Ativo 111 / 119 40% 1 14.03.2027 -
Mathias Jørgensen Blackburn Rovers Ativo 124 / 107 40% 4 13.03.2027 -
Rocco Vata Watford Ativo 130 / 107 40% 1 13.03.2027 -
Youssef En-Nesyri Al-Ittihad Ativo 133 / 130 40% 2 10.03.2027 -
Elijah Adebayo Luton Town Ativo 136 / 144 40% 2 10.03.2027 -
Rumarn Burrell Queens Park Rangers Ativo 134 / 102 40% 3 10.03.2027 -
Rey Manaj Sivasspor Ativo 138 / 113 40% 1 10.03.2027 -
Meschack Elia Alanyaspor Ativo 129 / 121 40% 3 08.03.2027 -
Mohamed-Ali Cho Hull City Ativo 142 / 145 40% 3 08.03.2027 -
Jordan Larsson Al-Ettifaq Ativo 116 / 118 40% 4 07.03.2027 -
Ivan Toney Al-Ahli Ativo 163 / 165 40% 4 07.03.2027 -
Domagoj Drožđek Tractor Ativo 124 / 127 40% 7 06.03.2027 -
Moussa Dembélé Zamalek Negociando 121 / 147 40% 2 04.03.2027 -
George Hirst Stoke City Ativo 132 / 140 40% 4 04.03.2027 -
Stephen Humphrys Bradford City Ativo 99 / 103 40% 1 02.03.2027 -
Ramin Noorafkan Siah Jamegan Ativo 119 / 96 40% 1 02.03.2027 -
Isaiah Jones Luton Town Ativo 113 / 107 40% 1 02.03.2027 -
Julián Quiñones Al-Qadisiyah Ativo 141 / 157 40% 5 28.02.2027 -
Alireza Yazdani Padideh Ativo 120 / 140 40% 1 22.02.2027 -
Taiwo Awoniyi Coventry City Ativo 144 / 132 40% 4 21.02.2027 -
Brayan Gil Baltika Ativo 121 / 128 40% 2 21.02.2027 -
Josh Coburn Millwall Ativo 108 / 104 40% 2 21.02.2027 -
Patrick Cutrone Monza Ativo 147 / 153 40% 3 20.02.2027 -
Pablo Rodríguez Lech Ativo 126 / 127 40% 3 18.02.2027 -
Bojan Radulović Huddersfield Town Ativo 106 / 94 40% 1 13.02.2027 -
Jalen Blesa Rio Ave Ativo 107 / 107 40% 1 12.02.2027 -
Musa Barrow Al-Khaleej Ativo 146 / 138 40% 5 10.02.2027 -
Oli McBurnie Hull City Ativo 134 / 125 40% 2 10.02.2027 -
Ioannis Pittas CSKA Sofia Ativo 115 / 133 40% 1 09.02.2027 -
Kyle Wootton Stockport County Ativo 114 / 97 40% 4 08.02.2027 -
Jaden Philogene Ipswich Town Ativo 154 / 128 40% 2 05.02.2027 -
Sam Greenwood Bristol City Ativo 112 / 113 40% 1 05.02.2027 -
Mohammad Mehdi Mohebi Persepolis Ativo 120 / 100 40% 1 04.02.2027 -
Everton Bala Levski Ativo 125 / 120 40% 2 01.02.2027 -
Žan Vipotnik Swansea City Ativo 116 / 147 40% 1 01.02.2027 -
Luis Vázquez Birmingham Ativo 118 / 109 40% 1 26.01.2027 -
Álex Blanco Umraniyespor Ativo 114 / 118 65% 1 11.01.2027 Aprovar
Kenneth Paal Antalyaspor Ativo 117 / 117 40% 1 11.01.2027 -
Jacques Ekomié Wrexham Ativo 130 / 146 40% 1 11.01.2027 -
Nicolás Arévalo Metalist Negociando 116 / 117 40% 1 11.01.2027 -
Sampson Dweh Mallorca Negociando 133 / 134 66% 1 01.01.2027 Aprovar
Andrej Đokanović Umraniyespor Ativo 82 / 78 65% 1 01.01.2027 Aprovar
Tijjani Reijnders Al-Qadisiyah Ativo 153 / 157 40% 2 31.12.2026 -
Jacob Greaves Ipswich Town Ativo 126 / 113 40% 1 31.12.2026 -
Flynn Downes Southampton Ativo 118 / 130 40% 1 31.12.2026 -
Mohammad Hosseini Malavan Ativo 127 / 105 40% 1 29.12.2026 -
Mostafa Mohamed Konyaspor Ativo 122 / 141 40% 2 28.12.2026 -
Jonathan Dellarossa Lokomotiv Plovdiv Ativo 128 / 122 40% 1 27.12.2026 -
Patson Daka Leicester City Ativo 125 / 137 40% 2 25.12.2026 -
Soufiane Rahimi Al Ain Ativo 145 / 158 40% 1 25.12.2026 -
Rhian Brewster Oleksandriya Ativo 131 / 130 40% 2 23.12.2026 -
Hansel Zapata Arsenal Tula Ativo 107 / 117 40% 1 22.12.2026 -
Federico Martínez MFK Ruzomberok Ativo 124 / 112 40% 1 19.12.2026 -
Marcelo Allende Mamelodi Sundowns Ativo 122 / 140 40% 2 18.12.2026 -
Juan Pablo Gallego Fehervar Ativo 104 / 105 40% 1 18.12.2026 -
Sorba Thomas Stoke City Ativo 128 / 146 40% 1 18.12.2026 -
Petar Stanić Ludogorets Ativo 144 / 139 40% 2 17.12.2026 -
Ali Ahmed Norwich City Ativo 115 / 146 40% 1 17.12.2026 -
Matías Vargas Gimnasia y Esgrima Ativo 127 / 137 40% 2 13.12.2026 -
Peter Valjent FK Senica Ativo 114 / 112 40% 2 11.12.2026 -
Kenny Tete Fulham Ativo 154 / 125 40% 1 10.12.2026 -
David Turnbull Cardiff City Ativo 117 / 94 40% 1 10.12.2026 -
Tyrhys Dolan Espanyol Ativo 143 / 141 40% 2 06.12.2026 -
Veljko Birmančević Ferencvaros Ativo 141 / 127 40% 2 04.12.2026 -
João Félix Dinamo Moscow Ativo 159 / 154 40% 1 03.12.2026 -
Eddie Nketiah Crystal Palace Ativo 141 / 115 40% 2 02.12.2026 -
Kwadwo Baah Watford Ativo 128 / 137 40% 1 01.12.2026 -
Jack Rudoni Coventry City Ativo 135 / 132 40% 1 01.12.2026 -
Lorent Tolaj Plymouth Argyle Ativo 110 / 110 40% 1 29.11.2026 -
Luka Jović CFR Cluj Ativo 133 / 139 40% 1 28.11.2026 -
Ilias Chair Queens Park Rangers Ativo 117 / 108 40% 1 27.11.2026 -
Elton Acolatse Al-Hazem Ativo 106 / 114 40% 1 20.11.2026 -
Callum Robinson Poltava Ativo 118 / 107 40% 1 20.11.2026 -
Etiosa Ighodaro Kaizer Chiefs Ativo 102 / 97 40% 1 19.11.2026 -
Dwight McNeil Crystal Palace Ativo 147 / 151 40% 1 19.11.2026 -
Hidemasa Morita Hull City Ativo 130 / 121 40% 1 11.11.2026 -
Abbosbek Fayzullayev Basaksehir Ativo 120 / 113 40% 3 09.11.2026 -
Oguzhan Omur Khazar Ativo 111 / 97 40% 3 06.11.2026 -
John Mercado Sparta Prague Ativo 126 / 109 40% 1 03.11.2026 -
Haashim Domingo Maritzburg United Ativo 97 / 124 40% 1 01.11.2026 -
Patrik Wålemark Lech Ativo 130 / 110 40% 1 31.10.2026 -
Nazar Voloshyn Dynamo Kyiv Ativo 132 / 120 40% 1 31.10.2026 -
Yuber Quiñónes Deportivo Pereira Ativo 119 / 119 40% 2 30.10.2026 -
Yunus Akgün Galatasaray Ativo 134 / 151 40% 3 25.10.2026 -
Deano Van Rooyen SuperSport United Ativo 109 / 127 40% 1 25.10.2026 -
Ruan Alanyaspor Ativo 130 / 132 40% 1 21.10.2026 -
Alexandru Cicâldău Universitatea Craiova Ativo 114 / 127 40% 1 17.10.2026 -
Álex Berenguer Lokomotiv Moscow Ativo 160 / 160 40% 4 14.10.2026 -
Teboho Mokoena Mamelodi Sundowns Ativo 141 / 141 40% 3 10.10.2026 -
Oston O'runov Persepolis Ativo 122 / 140 40% 1 08.10.2026 -
Daniel Karlsbakk Sarpsborg 08 Ativo 118 / 131 40% 1 07.10.2026 -
Enes Calhanoglu Tskhinvali Ativo 98 / 116 40% 1 07.10.2026 -
Pedro Zenit Ativo 136 / 150 40% 1 06.10.2026 -
Éderson Atalanta Ativo 151 / 134 40% 1 06.10.2026 -
Reda Khadra Qarabag Ativo 132 / 119 40% 1 05.10.2026 -
Conrad Wallem Djurgarden Ativo 136 / 116 40% 1 05.10.2026 -
Matěj Ryneš Sparta Prague Ativo 114 / 117 40% 1 19.09.2026 -
Fiete Arp OB Ativo 133 / 147 40% 1 19.09.2026 -
Brian Orosco Godoy Cruz Ativo 111 / 95 40% 2 17.09.2026 -
Velemseni Ndwandwe Golden Arrows Ativo 108 / 91 40% 1 17.09.2026 -
Nduduzo Sibiya Golden Arrows Ativo 105 / 120 40% 2 16.09.2026 -
Diego Fagúndez CSKA Moscow Ativo 115 / 114 40% 1 16.09.2026 -
Maxim De Cuyper Brighton Ativo 138 / 142 40% 2 15.09.2026 -
Mathias Fjørtoft Løvik Trabzonspor Ativo 116 / 116 40% 1 15.09.2026 -
Olivier Kemen Basaksehir Ativo 132 / 136 40% 1 14.09.2026 -
Matthias Seidl Rapid Wien Ativo 114 / 133 40% 1 14.09.2026 -
Santiago Hezze Fenerbahce Perdido 123 / 147 40% 1 13.09.2026 -
Fousseni Diabaté Kasimpasa Ativo 122 / 128 40% 1 13.09.2026 -
Ferland Mendy Real Madrid Ativo 137 / 166 40% 1 09.09.2026 -
Sergej Milinković-Savić Al-Hilal Ativo 164 / 177 40% 2 08.09.2026 -
Malcom Al Jazira Ativo 138 / 130 40% 1 11.08.2026 -
Raúl De Tomás Rayo Vallecano Ativo 120 / 108 40% 1 01.08.2026 -